createdAt,value
2022-11-12T00:02:46.597Z,36.90
2022-11-12T00:06:08.182Z,38.60
2022-11-12T00:09:25.543Z,42.00
2022-11-12T00:12:27.829Z,41.70
2022-11-12T00:15:29.807Z,45.40
2022-11-12T00:21:33.089Z,46.10
2022-11-12T00:24:34.862Z,44.90
2022-11-12T00:30:39.224Z,39.20
2022-11-12T00:33:42.165Z,39.80
2022-11-12T00:36:43.744Z,41.90
2022-11-12T00:42:47.175Z,38.10
2022-11-12T00:45:48.945Z,41.30
2022-11-12T00:48:50.899Z,38.70
2022-11-12T00:51:52.672Z,38.20
2022-11-12T00:54:54.338Z,40.20
2022-11-12T01:01:05.854Z,41.30
2022-11-12T01:04:08.321Z,43.20
2022-11-12T01:07:10.125Z,44.40
2022-11-12T01:10:12.139Z,45.80
2022-11-12T01:13:14.498Z,47.00
2022-11-12T01:16:20.059Z,45.90
2022-11-12T01:19:21.674Z,45.70
2022-11-12T01:22:23.758Z,47.10
2022-11-12T01:25:25.549Z,47.40
2022-11-12T01:28:29.379Z,45.50
2022-11-12T01:31:34.397Z,48.60
2022-11-12T01:34:36.117Z,47.90
2022-11-12T01:40:39.423Z,51.50
2022-11-12T01:43:41.946Z,50.40
2022-11-12T01:46:58.138Z,52.40
2022-11-12T01:50:06.139Z,51.20
2022-11-12T01:53:10.163Z,51.70
2022-11-12T01:56:11.979Z,51.20
2022-11-12T01:59:26.816Z,50.90
2022-11-12T02:02:28.754Z,49.10
2022-11-12T02:05:31.686Z,49.00
2022-11-12T02:08:34.345Z,48.70
2022-11-12T02:11:36.107Z,48.30
2022-11-12T02:14:37.795Z,48.60
2022-11-12T02:20:40.985Z,48.30
2022-11-12T02:23:43.101Z,47.50
2022-11-12T02:29:50.382Z,45.80
2022-11-12T02:32:52.041Z,47.00
2022-11-12T02:35:53.861Z,47.00
2022-11-12T02:44:59.559Z,44.70
2022-11-12T02:48:01.776Z,44.80
2022-11-12T02:51:03.538Z,47.30
2022-11-12T02:54:05.316Z,46.00
2022-11-12T02:57:06.934Z,44.40
2022-11-12T03:03:12.901Z,44.20
2022-11-12T03:06:15.064Z,46.30
2022-11-12T03:09:16.628Z,45.20
2022-11-12T03:15:20.096Z,45.20
2022-11-12T03:18:22.053Z,44.60
2022-11-12T03:24:25.219Z,47.10
2022-11-12T03:27:26.793Z,44.30
2022-11-12T03:30:31.180Z,44.40
2022-11-12T03:33:32.905Z,44.10
2022-11-12T03:39:36.784Z,45.20
2022-11-12T03:42:38.389Z,47.70
2022-11-12T03:48:41.770Z,47.60
2022-11-12T03:51:43.695Z,47.50
2022-11-12T03:54:45.417Z,46.20
2022-11-12T04:00:53.560Z,47.40
2022-11-12T04:07:15.774Z,46.40
2022-11-12T04:10:17.426Z,48.00
2022-11-12T04:16:48.823Z,50.90
2022-11-12T04:20:09.280Z,49.80
2022-11-12T04:23:11.035Z,47.70
2022-11-12T04:26:24.889Z,46.60
2022-11-12T04:29:45.444Z,49.50
2022-11-12T04:32:54.759Z,51.20
2022-11-12T04:35:56.523Z,49.80
2022-11-12T04:38:58.258Z,50.20
2022-11-12T04:45:20.227Z,49.50
2022-11-12T04:51:42.738Z,49.70
2022-11-12T04:54:44.340Z,50.40
2022-11-12T04:57:46.099Z,73.80
2022-11-12T05:03:49.664Z,52.60
2022-11-12T05:09:53.046Z,50.40
2022-11-12T05:12:54.656Z,49.80
2022-11-12T05:15:56.308Z,50.20
2022-11-12T05:18:58.108Z,51.50
2022-11-12T05:22:05.699Z,48.30
2022-11-12T05:25:07.987Z,47.30
2022-11-12T05:28:09.641Z,49.10
2022-11-12T05:31:11.750Z,53.60
2022-11-12T05:34:15.568Z,51.40
2022-11-12T05:37:20.769Z,53.30
2022-11-12T05:40:22.382Z,56.60
2022-11-12T05:43:24.268Z,61.70
2022-11-12T05:46:25.870Z,56.90
2022-11-12T05:52:29.582Z,61.20
2022-11-12T05:55:35.932Z,62.60
2022-11-12T05:58:39.285Z,60.40
2022-11-12T06:01:44.072Z,61.40
2022-11-12T06:04:45.742Z,59.90
2022-11-12T06:10:50.452Z,56.80
2022-11-12T06:13:52.170Z,55.70
2022-11-12T06:19:55.335Z,48.80
2022-11-12T06:25:59.302Z,44.30
2022-11-12T06:29:00.854Z,42.70
2022-11-12T06:32:02.450Z,37.70
2022-11-12T06:35:04.867Z,36.70
2022-11-12T06:38:06.500Z,35.80
2022-11-12T06:44:11.094Z,34.20
2022-11-12T06:47:12.782Z,33.00
2022-11-12T06:50:14.862Z,34.10
2022-11-12T06:53:16.482Z,33.00
2022-11-12T06:59:19.969Z,32.90
2022-11-12T07:02:21.727Z,32.90
2022-11-12T07:05:23.420Z,32.90
2022-11-12T07:08:25.639Z,34.00
2022-11-12T07:11:27.843Z,32.20
2022-11-12T07:14:29.464Z,35.10
2022-11-12T07:20:32.972Z,32.70
2022-11-12T07:23:36.212Z,34.50
2022-11-12T07:26:39.877Z,32.80
2022-11-12T07:29:48.806Z,34.70
2022-11-12T07:32:52.135Z,33.30
2022-11-12T07:36:06.029Z,30.20
2022-11-12T07:39:07.692Z,30.50
2022-11-12T07:42:09.470Z,30.50
2022-11-12T07:45:11.051Z,30.00
2022-11-12T07:48:12.673Z,30.60
2022-11-12T07:51:17.508Z,30.60
2022-11-12T07:54:19.262Z,30.00
2022-11-12T07:57:20.984Z,30.70
2022-11-12T08:00:23.715Z,29.90
2022-11-12T08:03:25.979Z,30.50
2022-11-12T08:06:29.008Z,30.90
2022-11-12T08:09:30.785Z,30.50
2022-11-12T08:12:32.330Z,29.70
2022-11-12T08:15:34.008Z,32.30
2022-11-12T08:18:35.689Z,28.30
2022-11-12T08:21:37.403Z,30.90
2022-11-12T08:24:39.274Z,30.20
2022-11-12T08:27:41.166Z,30.10
2022-11-12T08:30:42.846Z,27.80
2022-11-12T08:33:45.274Z,28.20
2022-11-12T08:36:46.949Z,27.20
2022-11-12T08:39:48.821Z,27.10
2022-11-12T08:42:57.938Z,25.60
2022-11-12T08:46:00.637Z,23.90
2022-11-12T08:49:02.315Z,22.00
2022-11-12T08:52:04.146Z,22.50
2022-11-12T08:55:06.623Z,23.60
2022-11-12T08:58:08.556Z,21.90
2022-11-12T09:01:10.372Z,21.00
2022-11-12T09:04:12.101Z,21.40
2022-11-12T09:07:43.416Z,21.10
2022-11-12T09:10:36.818Z,21.00
2022-11-12T09:13:38.735Z,19.70
2022-11-12T09:16:40.674Z,21.20
2022-11-12T09:19:43.157Z,19.90
2022-11-12T09:22:44.944Z,21.90
2022-11-12T09:25:46.699Z,20.30
2022-11-12T09:28:48.344Z,20.90
2022-11-12T09:31:50.362Z,19.80
2022-11-12T09:34:52.101Z,20.40
2022-11-12T09:37:53.801Z,19.20
2022-11-12T09:41:20.630Z,19.00
2022-11-12T09:44:24.542Z,18.20
2022-11-12T09:47:33.787Z,18.60
2022-11-12T09:50:41.042Z,19.40
2022-11-12T09:53:56.186Z,19.00
2022-11-12T09:56:57.867Z,18.40
2022-11-12T09:59:59.612Z,19.00
2022-11-12T10:03:15.044Z,18.90
2022-11-12T10:06:20.550Z,19.20
2022-11-12T10:09:29.259Z,17.90
2022-11-12T10:12:50.193Z,18.60
2022-11-12T10:19:58.622Z,30.20
2022-11-12T10:23:32.684Z,37.20
2022-11-12T10:26:35.180Z,22.60
2022-11-12T10:29:46.891Z,29.00
2022-11-12T10:32:49.462Z,19.40
2022-11-12T10:35:52.801Z,17.40
2022-11-12T10:38:55.395Z,15.90
2022-11-12T10:42:23.941Z,20.30
2022-11-12T10:45:26.315Z,17.20
2022-11-12T10:48:29.390Z,13.60
2022-11-12T10:51:34.225Z,12.80
2022-11-12T10:54:38.997Z,12.90
2022-11-12T10:57:40.656Z,12.50
2022-11-12T11:01:03.005Z,11.90
2022-11-12T11:04:04.763Z,11.60
2022-11-12T11:07:15.322Z,11.10
2022-11-12T11:13:29.236Z,11.20
2022-11-12T11:16:32.143Z,10.50
2022-11-12T11:19:38.695Z,10.60
2022-11-12T11:22:45.931Z,10.50
2022-11-12T11:25:51.410Z,10.60
2022-11-12T11:29:24.522Z,10.10
2022-11-12T11:32:37.435Z,10.30
2022-11-12T11:35:51.770Z,10.60
2022-11-12T11:38:59.524Z,11.30
2022-11-12T11:42:13.371Z,10.80
2022-11-12T11:45:40.534Z,11.00
2022-11-12T11:49:03.622Z,10.60
2022-11-12T11:52:50.712Z,10.60
2022-11-12T11:56:02.765Z,10.20
2022-11-12T11:59:24.612Z,11.20
2022-11-12T12:02:41.460Z,10.60
2022-11-12T12:05:46.405Z,10.70
2022-11-12T12:08:47.970Z,11.10
2022-11-12T12:11:54.780Z,11.10
2022-11-12T12:15:47.916Z,11.10
2022-11-12T12:19:05.166Z,10.30
2022-11-12T12:22:13.444Z,9.50
2022-11-12T12:25:28.056Z,10.90
2022-11-12T12:28:43.579Z,9.80
2022-11-12T12:31:50.970Z,9.10
2022-11-12T12:34:59.584Z,9.90
2022-11-12T12:38:15.679Z,8.90
2022-11-12T12:41:34.081Z,8.70
2022-11-12T12:45:01.244Z,8.60
2022-11-12T12:48:05.292Z,9.00
2022-11-12T12:51:06.977Z,9.80
2022-11-12T12:54:37.116Z,8.90
2022-11-12T12:57:39.656Z,9.60
2022-11-12T13:00:41.799Z,9.50
2022-11-12T13:03:43.852Z,9.80
2022-11-12T13:06:45.647Z,9.80
2022-11-12T13:09:47.483Z,9.20
2022-11-12T13:13:21.231Z,10.00
2022-11-12T13:17:01.856Z,8.70
2022-11-12T13:20:03.643Z,10.70
2022-11-12T13:23:09.839Z,10.30
2022-11-12T13:26:39.782Z,10.20
2022-11-12T13:29:42.909Z,10.00
2022-11-12T13:32:47.280Z,10.20
2022-11-12T13:35:49.180Z,10.50
2022-11-12T13:38:51.107Z,10.90
2022-11-12T13:42:18.137Z,10.20
2022-11-12T13:45:24.089Z,10.80
2022-11-12T13:48:36.959Z,10.70
2022-11-12T13:51:47.267Z,11.90
2022-11-12T13:55:01.664Z,12.20
2022-11-12T13:58:03.444Z,11.60
2022-11-12T14:01:06.422Z,12.60
2022-11-12T14:04:11.534Z,12.40
2022-11-12T14:07:40.019Z,12.50
2022-11-12T14:11:00.173Z,12.70
2022-11-12T14:14:16.360Z,12.20
2022-11-12T14:17:23.036Z,11.90
2022-11-12T14:20:30.778Z,12.90
2022-11-12T14:23:32.769Z,13.30
2022-11-12T14:26:40.054Z,13.60
2022-11-12T14:29:43.864Z,13.10
2022-11-12T14:32:47.386Z,12.80
2022-11-12T14:35:50.597Z,13.30
2022-11-12T14:38:55.292Z,14.30
2022-11-12T14:41:58.477Z,14.30
2022-11-12T14:45:00.406Z,13.80
2022-11-12T14:48:02.280Z,14.50
2022-11-12T14:51:07.452Z,14.80
2022-11-12T14:54:14.643Z,13.80
2022-11-12T14:57:26.835Z,14.10
2022-11-12T15:00:32.260Z,14.50
2022-11-12T15:03:34.044Z,14.40
2022-11-12T15:06:35.680Z,14.70
2022-11-12T15:09:38.960Z,14.80
2022-11-12T15:12:40.762Z,14.40
2022-11-12T15:15:59.680Z,14.30
2022-11-12T15:19:07.624Z,37.40
2022-11-12T15:22:19.579Z,23.20
2022-11-12T15:25:24.389Z,21.70
2022-11-12T15:28:26.653Z,18.40
2022-11-12T15:31:28.480Z,15.60
2022-11-12T15:34:41.117Z,15.40
2022-11-12T15:37:43.460Z,14.90
2022-11-12T15:40:46.609Z,14.10
2022-11-12T15:43:48.313Z,14.00
2022-11-12T15:46:50.092Z,14.70
2022-11-12T15:49:56.949Z,14.80
2022-11-12T15:52:59.312Z,14.90
2022-11-12T15:56:03.437Z,16.70
2022-11-12T15:59:05.163Z,17.00
2022-11-12T16:02:13.594Z,18.20
2022-11-12T16:05:16.582Z,19.30
2022-11-12T16:08:18.840Z,15.80
2022-11-12T16:11:35.964Z,26.00
2022-11-12T16:14:37.831Z,40.30
2022-11-12T16:17:39.765Z,39.20
2022-11-12T16:20:41.569Z,43.50
2022-11-12T16:23:43.393Z,46.50
2022-11-12T16:26:45.141Z,46.40
2022-11-12T16:29:46.955Z,40.60
2022-11-12T16:35:51.110Z,32.70
2022-11-12T16:38:52.935Z,34.70
2022-11-12T16:41:54.598Z,32.20
2022-11-12T16:44:56.409Z,32.20
2022-11-12T16:47:58.388Z,33.10
2022-11-12T16:51:00.914Z,34.20
2022-11-12T16:54:02.649Z,45.70
2022-11-12T16:57:04.365Z,41.10
2022-11-12T17:00:07.646Z,37.00
2022-11-12T17:03:13.100Z,57.50
2022-11-12T17:06:14.804Z,53.20
2022-11-12T17:09:18.090Z,39.10
2022-11-12T17:12:19.871Z,40.40
2022-11-12T17:15:21.729Z,45.00
2022-11-12T17:18:23.452Z,50.10
2022-11-12T17:21:25.304Z,74.20
2022-11-12T17:24:27.292Z,74.20
2022-11-12T17:27:28.937Z,93.00
2022-11-12T17:33:32.491Z,54.80
2022-11-12T17:36:35.324Z,54.20
2022-11-12T17:39:39.791Z,52.80
2022-11-12T17:45:51.475Z,48.30
2022-11-12T17:48:53.374Z,46.40
2022-11-12T17:51:55.155Z,42.40
2022-11-12T17:54:56.802Z,41.40
2022-11-12T18:01:23.406Z,44.20
2022-11-12T18:04:26.605Z,42.90
2022-11-12T18:07:31.850Z,43.00
2022-11-12T18:10:33.674Z,52.00
2022-11-12T18:16:36.996Z,47.60
2022-11-12T18:22:44.722Z,53.20
2022-11-12T18:25:46.862Z,52.40
2022-11-12T18:31:56.901Z,47.60
2022-11-12T18:38:00.219Z,48.00
2022-11-12T18:44:04.827Z,53.70
2022-11-12T18:47:06.500Z,49.60
2022-11-12T18:53:10.887Z,35.50
2022-11-12T18:56:17.601Z,34.50
2022-11-12T18:59:19.504Z,36.90
2022-11-12T19:02:21.420Z,37.50
2022-11-12T19:05:23.113Z,38.00
2022-11-12T19:08:26.584Z,34.40
2022-11-12T19:11:28.323Z,36.20
2022-11-12T19:14:30.339Z,36.60
2022-11-12T19:17:32.001Z,37.00
2022-11-12T19:23:35.315Z,34.20
2022-11-12T19:29:38.659Z,30.50
2022-11-12T19:35:42.158Z,32.50
2022-11-12T19:38:44.159Z,33.30
2022-11-12T19:41:45.929Z,33.40
2022-11-12T19:47:51.944Z,32.00
2022-11-12T19:50:54.194Z,34.10
2022-11-12T19:53:55.759Z,32.10
2022-11-12T19:56:57.392Z,37.20
2022-11-12T19:59:59.127Z,35.50
2022-11-12T20:06:03.958Z,35.30
2022-11-12T20:09:05.930Z,36.70
2022-11-12T20:12:08.532Z,36.20
2022-11-12T20:15:10.530Z,39.40
2022-11-12T20:18:12.182Z,38.50
2022-11-12T20:24:15.485Z,41.30
2022-11-12T20:30:19.610Z,39.20
2022-11-12T20:36:23.660Z,39.10
2022-11-12T20:39:25.376Z,39.60
2022-11-12T20:45:28.585Z,41.70
2022-11-12T20:48:30.492Z,41.10
2022-11-12T20:51:33.742Z,39.70
2022-11-12T20:54:35.463Z,37.30
2022-11-12T21:00:39.060Z,35.10
2022-11-12T21:03:42.146Z,37.20
2022-11-12T21:06:43.935Z,36.20
2022-11-12T21:09:45.630Z,37.30
2022-11-12T21:15:49.143Z,35.60
2022-11-12T21:18:50.785Z,38.20
2022-11-12T21:24:54.089Z,35.10
2022-11-12T21:31:05.185Z,33.40
2022-11-12T21:34:07.200Z,33.10
2022-11-12T21:37:09.163Z,33.30
2022-11-12T21:40:11.048Z,32.80
2022-11-12T21:43:12.775Z,35.80
2022-11-12T21:46:21.101Z,33.20
2022-11-12T21:49:22.833Z,35.50
2022-11-12T21:55:26.368Z,36.70
2022-11-12T21:58:29.525Z,37.60
2022-11-12T22:01:34.278Z,37.10
2022-11-12T22:04:35.998Z,39.90
2022-11-12T22:07:37.751Z,37.20
2022-11-12T22:13:42.000Z,36.60
2022-11-12T22:16:43.891Z,35.60
2022-11-12T22:19:45.716Z,39.10
2022-11-12T22:22:47.339Z,41.00
2022-11-12T22:28:54.011Z,40.60
2022-11-12T22:31:55.778Z,39.30
2022-11-12T22:34:57.652Z,41.60
2022-11-12T22:37:59.244Z,39.80
2022-11-12T22:47:14.657Z,39.10
2022-11-12T22:50:16.423Z,42.00
2022-11-12T22:53:18.090Z,37.90
2022-11-12T22:56:19.977Z,38.10
2022-11-12T22:59:21.709Z,35.70
2022-11-12T23:02:23.356Z,38.70
2022-11-12T23:05:25.049Z,39.00
2022-11-12T23:11:29.304Z,34.20
2022-11-12T23:14:30.965Z,34.30
2022-11-12T23:17:32.632Z,34.30
2022-11-12T23:23:36.259Z,31.90
2022-11-12T23:26:37.862Z,34.60
2022-11-12T23:29:39.564Z,33.60
2022-11-12T23:32:41.737Z,32.30
2022-11-12T23:35:43.448Z,33.80
2022-11-12T23:38:45.589Z,32.30
2022-11-12T23:41:47.328Z,32.20
2022-11-12T23:47:50.908Z,34.60
2022-11-12T23:51:03.866Z,31.50
2022-11-12T23:54:05.800Z,31.60
2022-11-12T23:57:07.628Z,35.10
